sensor_id;sensor_type;location;lat;lon;timestamp;pressure;altitude;pressure_sealevel;temperature;humidity
58367;BME280;57745;42.524;12.052;2023-05-19T00:10:22;96449.97;;;18.27;65.56
58367;BME280;57745;42.524;12.052;2023-05-19T00:12:48;96452.13;;;18.38;65.01
58367;BME280;57745;42.524;12.052;2023-05-19T00:25:34;96459.00;;;18.48;64.60
58367;BME280;57745;42.524;12.052;2023-05-19T00:41:25;96437.19;;;18.24;65.08
58367;BME280;57745;42.524;12.052;2023-05-19T00:43:51;96445.31;;;18.34;65.23
58367;BME280;57745;42.524;12.052;2023-05-19T00:56:22;96425.38;;;18.53;64.25
58367;BME280;57745;42.524;12.052;2023-05-19T01:12:15;96433.50;;;18.27;65.10
58367;BME280;57745;42.524;12.052;2023-05-19T01:41:41;96413.13;;;18.34;64.51
58367;BME280;57745;42.524;12.052;2023-05-19T01:58:01;96393.84;;;18.28;64.89
58367;BME280;57745;42.524;12.052;2023-05-19T02:27:23;96391.09;;;18.28;64.63
58367;BME280;57745;42.524;12.052;2023-05-19T02:43:16;96392.09;;;18.31;64.38
58367;BME280;57745;42.524;12.052;2023-05-19T02:59:08;96389.13;;;18.14;64.64
58367;BME280;57745;42.524;12.052;2023-05-19T03:28:16;96385.97;;;18.21;64.21
58367;BME280;57745;42.524;12.052;2023-05-19T03:44:08;96394.78;;;18.25;63.78
58367;BME280;57745;42.524;12.052;2023-05-19T04:00:03;96396.13;;;18.15;64.05
58367;BME280;57745;42.524;12.052;2023-05-19T04:13:06;96395.00;;;18.07;64.05
58367;BME280;57745;42.524;12.052;2023-05-19T04:28:59;96392.53;;;18.09;63.61
58367;BME280;57745;42.524;12.052;2023-05-19T04:44:52;96406.03;;;17.92;63.65
58367;BME280;57745;42.524;12.052;2023-05-19T05:00:45;96413.84;;;18.14;63.25
58367;BME280;57745;42.524;12.052;2023-05-19T05:13:46;96419.22;;;18.09;63.02
58367;BME280;57745;42.524;12.052;2023-05-19T05:29:40;96400.81;;;17.94;64.27
58367;BME280;57745;42.524;12.052;2023-05-19T05:45:32;96388.75;;;18.07;63.57
58367;BME280;57745;42.524;12.052;2023-05-19T06:01:24;96389.50;;;18.07;63.13
58367;BME280;57745;42.524;12.052;2023-05-19T06:14:26;96394.91;;;18.16;62.94
58367;BME280;57745;42.524;12.052;2023-05-19T06:30:19;96408.06;;;18.12;63.17
58367;BME280;57745;42.524;12.052;2023-05-19T06:46:11;96412.03;;;18.11;62.89
58367;BME280;57745;42.524;12.052;2023-05-19T07:02:04;96411.59;;;17.98;63.23
58367;BME280;57745;42.524;12.052;2023-05-19T07:15:12;96413.75;;;17.94;63.45
58367;BME280;57745;42.524;12.052;2023-05-19T07:31:03;96422.09;;;18.00;63.43
58367;BME280;57745;42.524;12.052;2023-05-19T07:46:56;96420.94;;;18.06;63.86
58367;BME280;57745;42.524;12.052;2023-05-19T08:02:48;96412.03;;;18.11;64.20
58367;BME280;57745;42.524;12.052;2023-05-19T08:15:52;96409.59;;;17.99;64.90
58367;BME280;57745;42.524;12.052;2023-05-19T08:31:51;96424.69;;;18.23;64.14
58367;BME280;57745;42.524;12.052;2023-05-19T08:34:18;96433.88;;;18.20;64.30
58367;BME280;57745;42.524;12.052;2023-05-19T08:46:49;96437.03;;;18.13;64.17
58367;BME280;57745;42.524;12.052;2023-05-19T09:02:47;96439.53;;;18.31;63.87
58367;BME280;57745;42.524;12.052;2023-05-19T09:18:39;96436.44;;;18.24;64.00
58367;BME280;57745;42.524;12.052;2023-05-19T09:48:02;96439.69;;;18.43;63.98
58367;BME280;57745;42.524;12.052;2023-05-19T10:03:54;96441.31;;;18.35;63.91
58367;BME280;57745;42.524;12.052;2023-05-19T10:33:10;96443.44;;;18.25;65.81
58367;BME280;57745;42.524;12.052;2023-05-19T10:49:06;96437.66;;;18.23;66.25
58367;BME280;57745;42.524;12.052;2023-05-19T11:18:26;96423.94;;;18.23;66.04
58367;BME280;57745;42.524;12.052;2023-05-19T11:34:19;96403.31;;;18.27;67.29
58367;BME280;57745;42.524;12.052;2023-05-19T11:36:45;96396.00;;;18.24;67.22
58367;BME280;57745;42.524;12.052;2023-05-19T11:39:10;96402.44;;;18.21;66.49
58367;BME280;57745;42.524;12.052;2023-05-19T11:48:23;96406.81;;;18.48;65.60
58367;BME280;57745;42.524;12.052;2023-05-19T12:04:18;96391.34;;;18.30;66.52
58367;BME280;57745;42.524;12.052;2023-05-19T12:20:10;96350.59;;;18.44;66.20
58367;BME280;57745;42.524;12.052;2023-05-19T12:22:36;96347.16;;;18.49;65.62
58367;BME280;57745;42.524;12.052;2023-05-19T12:35:07;96336.09;;;18.43;65.54
58367;BME280;57745;42.524;12.052;2023-05-19T12:51:01;96325.53;;;18.56;64.92
58367;BME280;57745;42.524;12.052;2023-05-19T13:20:05;96307.44;;;18.64;63.74
58367;BME280;57745;42.524;12.052;2023-05-19T13:22:31;96305.56;;;18.76;63.97
58367;BME280;57745;42.524;12.052;2023-05-19T13:35:02;96298.38;;;18.79;63.66
58367;BME280;57745;42.524;12.052;2023-05-19T13:50:54;96269.03;;;18.70;63.64
58367;BME280;57745;42.524;12.052;2023-05-19T14:06:46;96262.88;;;18.81;63.70
58367;BME280;57745;42.524;12.052;2023-05-19T14:35:58;96228.09;;;18.72;63.97
58367;BME280;57745;42.524;12.052;2023-05-19T14:51:53;96230.81;;;18.67;64.34
58367;BME280;57745;42.524;12.052;2023-05-19T15:21:37;96219.19;;;18.57;64.64
58367;BME280;57745;42.524;12.052;2023-05-19T15:37:42;96193.31;;;18.63;64.24
58367;BME280;57745;42.524;12.052;2023-05-19T16:08:22;96190.19;;;18.76;63.45
58367;BME280;57745;42.524;12.052;2023-05-19T16:21:24;96176.84;;;18.63;64.27
58367;BME280;57745;42.524;12.052;2023-05-19T16:37:17;96157.22;;;18.76;63.53
58367;BME280;57745;42.524;12.052;2023-05-19T16:53:10;96140.00;;;18.76;63.66
58367;BME280;57745;42.524;12.052;2023-05-19T17:09:03;96128.47;;;18.72;63.13
58367;BME280;57745;42.524;12.052;2023-05-19T17:22:07;96112.78;;;18.52;63.60
58367;BME280;57745;42.524;12.052;2023-05-19T17:37:59;96118.69;;;18.65;63.13
58367;BME280;57745;42.524;12.052;2023-05-19T17:53:52;96121.53;;;18.56;63.66
58367;BME280;57745;42.524;12.052;2023-05-19T18:09:45;96112.16;;;18.62;63.38
58367;BME280;57745;42.524;12.052;2023-05-19T18:22:46;96108.00;;;18.47;63.82
58367;BME280;57745;42.524;12.052;2023-05-19T18:38:39;96111.69;;;18.70;62.94
58367;BME280;57745;42.524;12.052;2023-05-19T18:41:05;96116.22;;;18.47;63.19
58367;BME280;57745;42.524;12.052;2023-05-19T18:53:36;96089.69;;;18.64;63.08
58367;BME280;57745;42.524;12.052;2023-05-19T19:09:27;96087.09;;;18.55;63.10
58367;BME280;57745;42.524;12.052;2023-05-19T19:25:19;96118.00;;;18.50;63.66
58367;BME280;57745;42.524;12.052;2023-05-19T19:54:33;96129.75;;;18.50;63.13
58367;BME280;57745;42.524;12.052;2023-05-19T19:56:58;96127.47;;;18.49;62.73
58367;BME280;57745;42.524;12.052;2023-05-19T20:09:30;96144.09;;;18.60;62.45
58367;BME280;57745;42.524;12.052;2023-05-19T20:25:23;96154.63;;;18.67;62.49
58367;BME280;57745;42.524;12.052;2023-05-19T20:41:16;96176.72;;;18.52;63.01
58367;BME280;57745;42.524;12.052;2023-05-19T20:54:34;96189.28;;;18.39;63.60
58367;BME280;57745;42.524;12.052;2023-05-19T21:10:27;96224.59;;;18.72;62.64
58367;BME280;57745;42.524;12.052;2023-05-19T21:26:19;96232.91;;;18.57;63.84
58367;BME280;57745;42.524;12.052;2023-05-19T21:42:13;96217.63;;;18.50;64.62
58367;BME280;57745;42.524;12.052;2023-05-19T22:12:17;96161.28;;;18.35;64.64
58367;BME280;57745;42.524;12.052;2023-05-19T22:41:33;96165.66;;;18.47;64.19
58367;BME280;57745;42.524;12.052;2023-05-19T22:43:59;96165.38;;;18.45;64.64
58367;BME280;57745;42.524;12.052;2023-05-19T22:56:29;96137.91;;;18.45;64.24
58367;BME280;57745;42.524;12.052;2023-05-19T23:12:22;96101.66;;;18.35;64.51
58367;BME280;57745;42.524;12.052;2023-05-19T23:28:14;96099.56;;;18.24;64.70
58367;BME280;57745;42.524;12.052;2023-05-19T23:57:23;96082.81;;;18.22;64.84
